Аэропорт: Хомутово. Южно-Сахалинск

ICAO: UHSS

METAR:
2019/05/25 20:00
UHSS 252000Z 13002MPS 9000 NSC 11/11 Q1006 R19/CLRD70 NOSIG RMK QFE753/1004
METAR:
2019/05/25 18:22
TAF UHSS 251700Z 2518/2624 14003MPS 9999 SCT040CB 
      TEMPO 2518/2522 1400 BR BKN004 BKN030CB 
      BECMG 2600/2603 24007MPS 
      BECMG 2610/2612 04003MPS